createdAt,value
2023-04-21T16:37:40.460Z,18.50
2023-04-21T16:40:09.401Z,18.60
2023-04-21T16:42:36.562Z,18.60
2023-04-21T16:45:05.348Z,18.60
2023-04-21T16:47:38.668Z,18.60
2023-04-21T16:50:08.420Z,18.60
2023-04-21T16:52:35.471Z,18.50
2023-04-21T16:55:02.425Z,18.50
2023-04-21T16:57:31.326Z,18.40
2023-04-21T16:59:59.321Z,18.30
2023-04-21T17:02:26.188Z,18.30
2023-04-21T17:04:52.899Z,18.30
2023-04-21T17:07:19.542Z,18.30
2023-04-21T17:09:47.461Z,18.30
2023-04-21T17:12:14.074Z,18.20
2023-04-21T17:14:40.877Z,18.20
2023-04-21T17:17:09.539Z,18.10
2023-04-21T17:19:36.310Z,18.10
2023-04-21T17:22:03.227Z,18.00
2023-04-21T17:24:35.503Z,18.00
2023-04-21T17:27:12.048Z,18.00
2023-04-21T17:29:38.723Z,17.90
2023-04-21T17:32:05.492Z,17.80
2023-04-21T17:34:32.184Z,17.70
2023-04-21T17:36:58.841Z,17.70
2023-04-21T17:39:26.267Z,17.60
2023-04-21T17:41:52.937Z,17.50
2023-04-21T17:44:20.257Z,17.40
2023-04-21T17:46:47.960Z,17.40
2023-04-21T17:49:14.777Z,17.40
2023-04-21T17:51:41.839Z,17.30
2023-04-21T17:54:10.053Z,17.20
2023-04-21T17:56:36.682Z,17.10
2023-04-21T17:59:04.664Z,17.10
2023-04-21T18:01:31.576Z,17.00
2023-04-21T18:04:00.952Z,17.00
2023-04-21T18:06:28.714Z,17.00
2023-04-21T18:08:55.861Z,16.90
2023-04-21T18:11:22.765Z,16.90
2023-04-21T18:13:49.422Z,16.90
2023-04-21T18:16:16.359Z,16.90
2023-04-21T18:18:44.805Z,16.80
2023-04-21T18:21:12.723Z,16.80
2023-04-21T18:23:39.546Z,16.80
2023-04-21T18:26:06.504Z,16.80
2023-04-21T18:28:37.361Z,16.80
2023-04-21T18:31:04.122Z,16.80
2023-04-21T18:33:31.467Z,16.70
2023-04-21T18:35:58.304Z,16.70
2023-04-21T18:38:25.516Z,16.60
2023-04-21T18:40:52.139Z,16.50
2023-04-21T18:43:19.957Z,16.50
2023-04-21T18:45:46.978Z,16.60
2023-04-21T18:48:14.015Z,16.60
2023-04-21T18:50:42.448Z,16.50
2023-04-21T18:53:09.246Z,16.40
2023-04-21T18:55:37.352Z,16.40
2023-04-21T18:58:04.277Z,16.30
2023-04-21T19:00:32.650Z,16.20
2023-04-21T19:03:04.070Z,16.10
2023-04-21T19:05:31.890Z,15.90
2023-04-21T19:08:01.395Z,15.80
2023-04-21T19:10:28.726Z,15.70
2023-04-21T19:12:55.508Z,15.60
2023-04-21T19:15:22.665Z,15.50
2023-04-21T19:17:49.514Z,15.40
2023-04-21T19:20:25.000Z,15.40
2023-04-21T19:22:51.769Z,15.40
2023-04-21T19:25:18.511Z,15.30
2023-04-21T19:27:46.280Z,15.20
2023-04-21T19:30:13.413Z,15.10
2023-04-21T19:32:40.801Z,15.00
2023-04-21T19:35:08.123Z,15.00
2023-04-21T19:37:36.125Z,14.80
2023-04-21T19:40:03.873Z,14.80
2023-04-21T19:42:32.137Z,14.80
2023-04-21T19:44:58.924Z,14.80
2023-04-21T19:47:26.340Z,14.70
2023-04-21T19:49:53.102Z,14.70
2023-04-21T19:52:19.887Z,14.70
2023-04-21T19:54:52.281Z,14.70
2023-04-21T19:57:19.025Z,14.80
2023-04-21T19:59:45.715Z,14.80
2023-04-21T20:02:13.972Z,14.80
2023-04-21T20:04:41.012Z,14.90
2023-04-21T20:07:08.280Z,14.90
2023-04-21T20:09:34.902Z,14.80
2023-04-21T20:12:01.804Z,14.80
2023-04-21T20:14:28.448Z,14.80
2023-04-21T20:16:55.995Z,14.70
2023-04-21T20:19:22.987Z,14.70
2023-04-21T20:21:52.799Z,14.70
2023-04-21T20:24:19.470Z,14.70
2023-04-21T20:26:46.104Z,14.60
2023-04-21T20:29:12.899Z,14.70
2023-04-21T20:31:39.864Z,14.70
2023-04-21T20:34:06.981Z,14.60
2023-04-21T20:36:37.013Z,14.50
2023-04-21T20:39:06.396Z,14.40
2023-04-21T20:41:34.437Z,14.40
2023-04-21T20:44:01.648Z,14.30
2023-04-21T20:46:29.807Z,14.20
2023-04-21T20:48:56.635Z,14.20
2023-04-21T20:51:23.404Z,14.20
2023-04-21T20:53:50.783Z,14.20
2023-04-21T20:56:17.518Z,14.20
2023-04-21T20:58:45.927Z,14.20
2023-04-21T21:01:13.470Z,14.10
2023-04-21T21:03:40.599Z,14.10
2023-04-21T21:06:11.125Z,14.10
2023-04-21T21:08:44.307Z,14.10
2023-04-21T21:11:14.509Z,14.10
2023-04-21T21:13:41.279Z,14.10
2023-04-21T21:16:08.166Z,14.20
2023-04-21T21:18:35.996Z,14.10
2023-04-21T21:21:02.743Z,13.90
2023-04-21T21:23:29.843Z,13.90
2023-04-21T21:25:58.540Z,13.80
2023-04-21T21:28:25.710Z,13.70
2023-04-21T21:30:52.488Z,13.60
2023-04-21T21:33:20.314Z,13.60
2023-04-21T21:35:49.045Z,13.60
2023-04-21T21:38:16.169Z,13.60
2023-04-21T21:40:46.797Z,13.50
2023-04-21T21:43:22.217Z,13.40
2023-04-21T21:45:51.093Z,13.30
2023-04-21T21:48:21.833Z,13.20
2023-04-21T21:50:49.023Z,13.20
2023-04-21T21:53:15.847Z,13.10
2023-04-21T21:55:45.721Z,13.10
2023-04-21T21:58:12.480Z,13.10
2023-04-21T22:00:39.558Z,13.10
2023-04-21T22:03:06.700Z,13.20
2023-04-21T22:05:33.758Z,13.30
2023-04-21T22:08:01.284Z,13.30
2023-04-21T22:10:29.152Z,13.30
2023-04-21T22:12:57.834Z,13.30
2023-04-21T22:15:24.490Z,13.30
2023-04-21T22:17:52.333Z,13.30
2023-04-21T22:20:23.383Z,13.30
2023-04-21T22:22:52.689Z,13.20
2023-04-21T22:25:19.631Z,13.20
2023-04-21T22:27:46.741Z,13.20
2023-04-21T22:30:16.017Z,13.10
2023-04-21T22:32:42.765Z,13.10
2023-04-21T22:35:09.527Z,13.10
2023-04-21T22:37:36.588Z,13.00
2023-04-21T22:40:04.413Z,12.90
2023-04-21T22:42:31.172Z,12.80
2023-04-21T22:44:57.953Z,12.80
2023-04-21T22:47:24.697Z,12.60
2023-04-21T22:49:51.492Z,12.60
2023-04-21T22:52:18.127Z,12.40
2023-04-21T22:54:44.955Z,12.30
2023-04-21T22:57:11.916Z,12.30
2023-04-21T22:59:40.757Z,12.20
2023-04-21T23:02:07.993Z,12.20
2023-04-21T23:04:35.439Z,12.20
2023-04-21T23:07:02.360Z,12.20
2023-04-21T23:09:29.134Z,12.20
2023-04-21T23:11:55.862Z,12.20
2023-04-21T23:14:22.466Z,12.00
2023-04-21T23:16:49.130Z,11.90
2023-04-21T23:19:15.865Z,11.80
2023-04-21T23:21:42.710Z,11.70
2023-04-21T23:24:09.581Z,11.60
2023-04-21T23:26:36.234Z,11.60
2023-04-21T23:29:03.009Z,11.60
2023-04-21T23:31:30.644Z,11.50
2023-04-21T23:33:59.925Z,11.40
2023-04-21T23:36:27.095Z,11.30
2023-04-21T23:38:54.122Z,11.20
2023-04-21T23:41:21.551Z,11.20
2023-04-21T23:43:48.173Z,11.20
2023-04-21T23:46:14.978Z,11.10
2023-04-21T23:48:42.878Z,11.10
2023-04-21T23:51:10.767Z,11.00
2023-04-21T23:53:38.760Z,11.00
2023-04-21T23:56:05.912Z,11.00
2023-04-21T23:58:32.724Z,10.90
